Terminal Aerodrome Forecast
Issued by NWS

Home | Current Version | Previous Version | Text Only | Print | Product List | Glossary On
Versions: 1 2 3 4 5 6 7 8 9 10 11 12 13 14 15 16 17 18 19
000
FTUS45 KLKN 271736
TAFELY
TAF
KELY 271736Z 2718/2818 17006KT P6SM SCT120
     FM271900 30006KT P6SM BKN080
     FM280400 VRB05KT P6SM SKC
     FM281700 22009KT P6SM VCTS SCT070CB BKN100=

USA.gov is the U.S. government's official web portal to all federal, state and local government web resources and services.